Time;durP1;ratioP1;P1;durP2;ratioP2;P2;SDS_P1;SDS_P2;PMS_P1;PMS_P2;Temp;Humidity;BMP_temperature;BMP_pressure;BME280_temperature;BME280_humidity;BME280_pressure;Samples;Min_cycle;Max_cycle;Signal;HPM_P1;HPM_P2
2022/01/16 00:01:44;;;;;;;12.35;10.48;;;18.70;35.30;;;;;;5076670;28;20154;-35
2022/01/16 00:06:27;;;;;;;13.68;10.57;;;18.70;35.20;;;;;;5077010;28;20119;-35
2022/01/16 00:08:54;;;;;;;13.15;10.82;;;18.70;35.20;;;;;;5077081;28;20058;-35
2022/01/16 00:11:20;;;;;;;13.35;11.15;;;18.70;35.30;;;;;;5076919;28;20024;-36
2022/01/16 00:13:46;;;;;;;12.75;10.38;;;18.70;35.30;;;;;;5076242;28;20155;-36
2022/01/16 00:16:15;;;;;;;12.88;10.45;;;18.70;35.20;;;;;;5076091;28;20013;-35
2022/01/16 00:18:52;;;;;;;12.88;10.75;;;18.80;35.20;;;;;;5076434;28;20027;-35
2022/01/16 00:21:23;;;;;;;13.10;10.82;;;18.70;35.20;;;;;;5076238;28;20023;-35
2022/01/16 00:23:49;;;;;;;12.88;10.55;;;18.70;35.20;;;;;;5075525;28;20028;-36
2022/01/16 00:26:15;;;;;;;12.32;10.30;;;18.80;35.20;;;;;;5075380;28;20109;-35
2022/01/16 00:28:41;;;;;;;13.70;10.88;;;18.70;35.10;;;;;;5074973;28;20052;-36
2022/01/16 00:31:07;;;;;;;13.65;11.10;;;18.80;35.10;;;;;;5075053;28;20076;-35
2022/01/16 00:33:34;;;;;;;13.07;10.75;;;18.80;35.10;;;;;;5075801;28;20005;-35
2022/01/16 00:35:59;;;;;;;13.25;10.80;;;18.80;35.00;;;;;;5057602;28;20536;-35
2022/01/16 00:38:25;;;;;;;12.38;10.68;;;18.80;35.10;;;;;;5058034;28;20083;-36
2022/01/16 00:40:52;;;;;;;12.10;10.23;;;18.80;35.10;;;;;;5057169;28;20031;-35
2022/01/16 00:43:18;;;;;;;14.38;10.77;;;18.80;35.00;;;;;;5075204;28;20021;-35
2022/01/16 00:45:46;;;;;;;13.43;10.88;;;18.80;35.00;;;;;;5074615;28;20103;-35
2022/01/16 00:48:12;;;;;;;11.93;9.85;;;18.80;35.00;;;;;;5074051;28;20012;-36
2022/01/16 00:50:38;;;;;;;12.73;10.75;;;18.80;35.00;;;;;;5074053;28;20055;-35
2022/01/16 00:53:05;;;;;;;13.38;10.60;;;18.80;35.00;;;;;;5075033;28;20051;-35
2022/01/16 00:55:32;;;;;;;12.80;10.18;;;18.80;35.10;;;;;;5075358;28;20390;-35
2022/01/16 00:57:58;;;;;;;12.88;10.27;;;18.80;35.00;;;;;;5075043;28;20027;-35
2022/01/16 01:00:25;;;;;;;12.88;10.43;;;18.80;35.00;;;;;;5075023;28;20081;-36
2022/01/16 01:02:54;;;;;;;13.52;10.30;;;18.80;35.10;;;;;;5075008;28;20090;-35
2022/01/16 01:05:20;;;;;;;11.63;10.20;;;18.80;35.10;;;;;;5075401;28;20028;-35
2022/01/16 01:07:46;;;;;;;11.48;9.90;;;18.80;35.00;;;;;;5076186;28;20013;-36
2022/01/16 01:10:12;;;;;;;12.77;9.98;;;18.90;34.90;;;;;;5075270;28;20482;-35
2022/01/16 01:12:55;;;;;;;12.55;9.98;;;18.80;34.90;;;;;;5075259;28;20092;-35
2022/01/16 01:15:29;;;;;;;12.80;10.52;;;18.80;34.90;;;;;;5075397;28;20103;-35
2022/01/16 01:17:54;;;;;;;13.10;10.07;;;18.90;35.50;;;;;;5076050;28;20017;-35
2022/01/16 01:20:21;;;;;;;13.75;10.15;;;18.80;34.90;;;;;;5075197;28;20548;-35
2022/01/16 01:22:49;;;;;;;11.98;10.05;;;18.80;34.90;;;;;;5076455;28;20028;-35
2022/01/16 01:25:16;;;;;;;11.20;9.57;;;18.80;34.90;;;;;;5075922;28;20027;-36
2022/01/16 01:27:43;;;;;;;12.93;10.57;;;18.90;34.90;;;;;;5074530;28;20013;-36
2022/01/16 01:30:20;;;;;;;12.68;10.13;;;18.90;34.90;;;;;;5074743;28;20016;-35
2022/01/16 01:32:47;;;;;;;11.75;9.57;;;18.90;34.90;;;;;;5075060;28;20027;-35
2022/01/16 01:35:15;;;;;;;12.68;10.38;;;18.90;34.80;;;;;;5075192;28;20013;-35
2022/01/16 01:37:42;;;;;;;11.82;10.00;;;18.90;34.80;;;;;;5074467;28;20101;-36
2022/01/16 01:40:10;;;;;;;13.00;9.77;;;18.90;34.80;;;;;;5057106;28;20009;-36
2022/01/16 01:42:44;;;;;;;12.13;10.18;;;18.90;34.80;;;;;;5078684;28;20537;-36
2022/01/16 01:53:23;;;;;;;12.25;10.10;;;18.90;34.70;;;;;;5063802;28;20513;-35
2022/01/16 01:55:48;;;;;;;11.23;9.80;;;18.90;34.60;;;;;;5078866;28;20033;-35
2022/01/16 01:58:16;;;;;;;10.90;9.45;;;19.00;34.80;;;;;;5078621;28;20020;-35
2022/01/16 02:00:42;;;;;;;10.70;9.48;;;19.00;34.70;;;;;;5078054;28;20009;-36
2022/01/16 02:05:39;;;;;;;11.77;9.35;;;19.00;35.30;;;;;;5077601;28;20044;-36
2022/01/16 02:08:06;;;;;;;12.63;9.52;;;19.00;34.70;;;;;;5062322;28;20008;-36
2022/01/16 02:10:32;;;;;;;11.25;9.93;;;19.00;34.70;;;;;;5079794;28;20471;-35
2022/01/16 02:13:03;;;;;;;10.98;9.55;;;19.00;34.70;;;;;;5079467;28;20012;-36
2022/01/16 02:31:37;;;;;;;10.48;9.20;;;19.00;34.70;;;;;;5077095;28;20025;-36
2022/01/16 02:36:49;;;;;;;10.63;8.95;;;19.00;34.70;;;;;;5077662;28;20464;-36
2022/01/16 02:39:16;;;;;;;11.90;9.57;;;19.00;34.70;;;;;;5078925;28;20044;-36
2022/01/16 02:41:43;;;;;;;11.05;8.88;;;19.00;34.70;;;;;;5079076;28;20036;-36
2022/01/16 02:46:55;;;;;;;12.25;9.52;;;19.00;34.70;;;;;;5078952;28;20019;-35
2022/01/16 02:49:23;;;;;;;10.65;8.77;;;19.00;34.70;;;;;;5079265;28;20008;-36
2022/01/16 02:51:58;;;;;;;10.20;8.45;;;19.00;34.70;;;;;;5080032;28;20020;-35
2022/01/16 02:54:27;;;;;;;10.90;9.23;;;19.10;34.70;;;;;;5079784;28;20039;-35
2022/01/16 02:56:54;;;;;;;9.50;8.40;;;19.00;34.70;;;;;;5079978;28;20028;-36
2022/01/16 02:59:21;;;;;;;9.77;8.57;;;19.10;34.70;;;;;;5080313;28;20102;-36
2022/01/16 03:01:47;;;;;;;11.43;9.50;;;19.00;34.70;;;;;;5079211;28;20016;-36
2022/01/16 03:04:15;;;;;;;10.85;8.68;;;19.10;34.70;;;;;;5079759;28;20062;-36
2022/01/16 03:06:41;;;;;;;11.00;9.15;;;19.10;34.70;;;;;;5080499;28;20383;-35
2022/01/16 03:09:08;;;;;;;10.45;8.70;;;19.10;34.70;;;;;;5079982;28;20021;-36
2022/01/16 03:11:42;;;;;;;10.32;8.60;;;19.10;34.70;;;;;;5079303;28;20027;-36
2022/01/16 03:14:13;;;;;;;10.23;9.05;;;19.10;34.70;;;;;;5080155;28;20013;-35
2022/01/16 03:16:42;;;;;;;11.07;8.82;;;19.10;34.70;;;;;;5080175;28;20016;-35
2022/01/16 03:21:55;;;;;;;10.55;9.07;;;19.10;34.70;;;;;;5079773;28;20262;-36
2022/01/16 03:24:24;;;;;;;9.77;8.68;;;19.10;34.70;;;;;;5079760;28;20045;-36
2022/01/16 03:26:51;;;;;;;10.43;8.40;;;19.10;34.70;;;;;;5079762;28;20153;-36
2022/01/16 03:29:17;;;;;;;9.55;8.40;;;19.10;34.70;;;;;;5079709;28;20017;-37
2022/01/16 03:31:48;;;;;;;9.75;8.48;;;19.10;34.70;;;;;;5079481;28;20040;-36
2022/01/16 03:34:15;;;;;;;9.85;8.38;;;19.10;34.70;;;;;;5078972;28;20021;-37
2022/01/16 03:36:42;;;;;;;10.77;9.05;;;19.10;34.70;;;;;;5078962;28;20016;-36
2022/01/16 03:39:07;;;;;;;9.50;8.23;;;19.10;34.70;;;;;;5077976;28;20036;-36
2022/01/16 03:41:34;;;;;;;9.70;8.25;;;19.10;34.70;;;;;;5077365;28;20020;-36
2022/01/16 03:44:03;;;;;;;9.77;8.30;;;19.10;34.70;;;;;;5076752;28;20017;-35
2022/01/16 03:46:36;;;;;;;9.65;8.60;;;19.00;34.70;;;;;;5075984;28;20059;-36
2022/01/16 03:49:05;;;;;;;10.90;9.07;;;19.10;34.80;;;;;;5075416;28;20088;-35
2022/01/16 03:51:31;;;;;;;10.18;8.40;;;19.10;34.70;;;;;;5075665;28;20096;-35
2022/01/16 03:53:57;;;;;;;9.52;8.32;;;19.10;34.70;;;;;;5075679;28;20032;-36
2022/01/16 03:56:23;;;;;;;10.68;8.70;;;19.10;34.70;;;;;;5075812;28;20020;-36
2022/01/16 03:58:49;;;;;;;10.13;8.43;;;19.20;34.80;;;;;;5075723;28;20020;-35
2022/01/16 04:01:15;;;;;;;9.95;8.50;;;19.10;34.70;;;;;;5058582;28;20019;-36
2022/01/16 04:03:41;;;;;;;9.82;8.45;;;19.10;34.70;;;;;;5075324;28;20052;-36
2022/01/16 04:06:07;;;;;;;11.23;8.68;;;19.20;34.70;;;;;;5075679;28;20115;-35
2022/01/16 04:08:33;;;;;;;9.15;8.05;;;19.20;34.70;;;;;;5057896;28;20040;-36
2022/01/16 04:11:00;;;;;;;10.55;8.88;;;19.10;34.70;;;;;;5076212;28;20017;-36
2022/01/16 04:13:26;;;;;;;9.38;7.97;;;19.20;34.80;;;;;;5076012;28;20497;-37
2022/01/16 04:15:51;;;;;;;11.73;9.20;;;19.10;34.70;;;;;;5075801;28;20020;-35
2022/01/16 04:18:17;;;;;;;9.55;7.97;;;19.10;34.70;;;;;;5057766;28;20023;-35
2022/01/16 04:20:44;;;;;;;9.88;8.18;;;19.10;34.80;;;;;;5076113;28;20055;-36
2022/01/16 04:23:10;;;;;;;9.70;7.90;;;19.10;34.70;;;;;;5075249;28;20020;-37
2022/01/16 04:25:36;;;;;;;9.00;7.75;;;19.10;34.70;;;;;;5075181;28;20035;-35
2022/01/16 04:28:03;;;;;;;9.48;7.97;;;19.10;34.70;;;;;;5075746;28;20495;-35
2022/01/16 04:30:30;;;;;;;10.05;8.27;;;19.20;34.80;;;;;;5057859;28;20020;-35
2022/01/16 04:32:55;;;;;;;9.60;8.32;;;19.20;34.80;;;;;;5075094;28;20009;-35
2022/01/16 04:35:21;;;;;;;9.52;7.72;;;19.10;34.70;;;;;;5075170;28;20025;-35
2022/01/16 04:37:47;;;;;;;9.68;7.63;;;19.20;34.80;;;;;;5075517;28;20024;-37
2022/01/16 04:40:14;;;;;;;9.15;8.00;;;19.20;34.80;;;;;;5075037;28;20459;-36
2022/01/16 04:45:24;;;;;;;9.70;8.27;;;19.20;34.80;;;;;;5075028;28;20048;-36
2022/01/16 04:47:50;;;;;;;9.77;8.02;;;19.20;34.80;;;;;;5076415;28;20413;-36
2022/01/16 04:50:16;;;;;;;9.00;7.63;;;19.20;34.80;;;;;;5076098;28;20474;-36
2022/01/16 04:52:43;;;;;;;9.45;8.32;;;19.20;34.80;;;;;;5075658;28;20531;-35
2022/01/16 04:55:09;;;;;;;9.63;8.20;;;19.20;34.80;;;;;;5075470;28;20083;-37
2022/01/16 04:57:35;;;;;;;9.07;7.72;;;19.20;34.80;;;;;;5075393;28;20112;-35
2022/01/16 05:00:07;;;;;;;9.57;7.97;;;19.20;34.80;;;;;;5075311;28;20025;-36
2022/01/16 05:02:33;;;;;;;9.35;8.18;;;19.20;34.80;;;;;;5075273;28;20043;-36
2022/01/16 05:04:58;;;;;;;9.88;7.78;;;19.20;34.80;;;;;;5057328;28;20036;-36
2022/01/16 05:07:25;;;;;;;10.30;8.52;;;19.10;34.70;;;;;;5075788;28;20016;-35
2022/01/16 05:09:50;;;;;;;9.55;7.93;;;19.20;34.80;;;;;;5075579;28;20054;-35
2022/01/16 05:12:26;;;;;;;9.88;8.15;;;19.20;34.80;;;;;;5074922;28;20103;-35
2022/01/16 05:17:36;;;;;;;9.48;7.97;;;19.20;34.80;;;;;;5076190;28;20035;-36
2022/01/16 05:20:03;;;;;;;9.65;7.90;;;19.20;34.80;;;;;;5075217;28;20021;-37
2022/01/16 05:22:30;;;;;;;9.65;7.95;;;19.20;34.80;;;;;;5075200;28;20024;-36
2022/01/16 05:24:57;;;;;;;9.93;7.60;;;19.10;34.80;;;;;;5075736;28;20055;-36
2022/01/16 05:27:24;;;;;;;10.25;7.88;;;19.10;34.90;;;;;;5076292;28;20043;-36
2022/01/16 05:29:50;;;;;;;10.68;8.00;;;19.10;34.80;;;;;;5076074;28;20025;-36
2022/01/16 05:32:17;;;;;;;9.75;7.65;;;19.20;34.80;;;;;;5075609;28;20044;-36
2022/01/16 05:34:44;;;;;;;10.45;8.15;;;19.20;34.80;;;;;;5075965;28;20493;-36
2022/01/16 05:37:10;;;;;;;9.05;7.72;;;19.20;34.80;;;;;;5075832;28;20052;-36
2022/01/16 05:39:37;;;;;;;9.60;8.07;;;19.20;34.80;;;;;;5076033;28;20092;-36
2022/01/16 05:42:03;;;;;;;8.52;7.63;;;19.20;34.80;;;;;;5076574;28;20019;-36
2022/01/16 05:44:31;;;;;;;10.30;8.35;;;19.20;34.90;;;;;;5075341;28;20028;-36
2022/01/16 05:47:02;;;;;;;9.15;7.68;;;19.20;34.80;;;;;;5076151;28;20047;-36
2022/01/16 05:49:28;;;;;;;;;;;19.20;34.80;;;;;;5076521;28;20017;-36
2022/01/16 05:51:54;;;;;;;10.50;7.90;;;19.20;34.80;;;;;;5076978;28;20459;-36
2022/01/16 05:54:21;;;;;;;8.65;7.63;;;19.20;34.80;;;;;;5077096;28;20064;-36
2022/01/16 05:56:46;;;;;;;10.88;7.85;;;19.20;34.80;;;;;;5077358;28;20021;-36
2022/01/16 05:59:12;;;;;;;9.88;7.95;;;19.20;34.80;;;;;;5076426;28;20024;-36
2022/01/16 06:01:38;;;;;;;9.50;7.80;;;19.20;34.80;;;;;;5076352;28;20028;-37
2022/01/16 06:04:04;;;;;;;10.45;8.18;;;19.20;34.80;;;;;;5077222;28;20028;-37
2022/01/16 06:06:30;;;;;;;10.00;8.05;;;19.20;34.80;;;;;;5076637;28;20037;-37
2022/01/16 06:08:56;;;;;;;9.90;8.10;;;19.20;34.80;;;;;;5076378;28;20426;-37
2022/01/16 06:11:22;;;;;;;10.38;7.97;;;19.30;35.40;;;;;;5075705;28;20509;-37
2022/01/16 06:13:48;;;;;;;9.73;7.65;;;19.20;34.80;;;;;;5075028;28;20463;-36
2022/01/16 06:16:15;;;;;;;10.25;8.45;;;19.20;34.70;;;;;;5075475;28;20028;-36
2022/01/16 06:18:41;;;;;;;10.55;8.27;;;19.30;34.80;;;;;;5075870;28;20047;-36
2022/01/16 06:21:07;;;;;;;9.77;7.97;;;19.30;34.80;;;;;;5075944;28;20391;-35
2022/01/16 06:23:34;;;;;;;10.23;8.45;;;19.20;34.70;;;;;;5075464;28;20086;-37
2022/01/16 06:26:01;;;;;;;10.55;8.13;;;19.30;34.80;;;;;;5075409;28;20051;-36
2022/01/16 06:28:28;;;;;;;10.48;8.05;;;19.20;34.80;;;;;;5077018;28;20009;-36
2022/01/16 06:30:54;;;;;;;9.98;7.93;;;19.20;34.80;;;;;;5078585;28;20012;-38
2022/01/16 06:33:21;;;;;;;9.93;7.85;;;19.30;34.80;;;;;;5078261;28;20005;-37
2022/01/16 06:35:46;;;;;;;10.38;8.10;;;19.30;34.80;;;;;;5077599;28;20050;-36
2022/01/16 06:38:12;;;;;;;10.98;8.30;;;19.20;34.80;;;;;;5077795;28;20024;-38
2022/01/16 06:40:38;;;;;;;10.85;8.38;;;19.20;34.80;;;;;;5077803;28;20017;-36
2022/01/16 06:43:04;;;;;;;9.55;7.63;;;19.20;34.80;;;;;;5059435;28;20021;-36
2022/01/16 06:45:31;;;;;;;11.10;8.48;;;19.30;34.80;;;;;;5078043;28;20056;-37
2022/01/16 06:47:57;;;;;;;11.95;8.32;;;19.30;34.80;;;;;;5078188;28;20021;-36
2022/01/16 06:50:23;;;;;;;10.32;7.65;;;19.30;34.70;;;;;;5078570;28;20059;-35
2022/01/16 06:52:50;;;;;;;9.30;7.60;;;19.30;34.80;;;;;;5078142;28;20013;-36
2022/01/16 06:55:16;;;;;;;9.70;7.20;;;19.30;34.70;;;;;;5077647;28;20040;-37
2022/01/16 06:57:43;;;;;;;11.45;8.88;;;19.30;34.70;;;;;;5077815;28;20020;-37
2022/01/16 07:00:09;;;;;;;9.40;7.70;;;19.30;34.70;;;;;;5077211;28;20021;-36
2022/01/16 07:02:36;;;;;;;10.23;8.00;;;19.30;34.60;;;;;;5077325;28;20017;-36
2022/01/16 07:05:04;;;;;;;10.50;7.82;;;19.30;34.70;;;;;;5077275;28;20033;-36
2022/01/16 07:07:30;;;;;;;10.18;7.50;;;19.30;34.70;;;;;;5077911;28;20028;-36
2022/01/16 07:09:56;;;;;;;9.85;7.75;;;19.30;34.70;;;;;;5077865;28;20032;-37
2022/01/16 07:12:22;;;;;;;9.85;7.85;;;19.30;34.70;;;;;;5077102;28;20471;-36
2022/01/16 07:14:48;;;;;;;10.23;7.93;;;19.30;34.80;;;;;;5077425;28;20021;-35
2022/01/16 07:17:14;;;;;;;9.82;7.65;;;19.30;34.80;;;;;;5077151;28;20040;-38
2022/01/16 07:19:40;;;;;;;10.10;8.00;;;19.30;34.80;;;;;;5077076;28;20044;-36
2022/01/16 07:22:06;;;;;;;9.90;7.70;;;19.30;34.80;;;;;;5076642;28;20005;-35
2022/01/16 07:24:32;;;;;;;9.52;7.88;;;19.30;34.80;;;;;;5076851;28;20095;-36
2022/01/16 07:27:00;;;;;;;9.50;7.75;;;19.30;34.80;;;;;;5076540;28;20090;-36
2022/01/16 07:29:29;;;;;;;10.68;8.38;;;19.30;34.80;;;;;;5076316;28;20013;-35
2022/01/16 07:31:55;;;;;;;9.40;8.07;;;19.30;34.80;;;;;;5058252;28;20000;-36
2022/01/16 07:34:21;;;;;;;9.57;7.80;;;19.30;34.80;;;;;;5076073;28;20051;-36
2022/01/16 07:36:48;;;;;;;10.05;7.93;;;19.30;34.80;;;;;;5059229;28;20459;-35
2022/01/16 07:39:14;;;;;;;11.05;8.32;;;19.30;34.80;;;;;;5076771;28;20017;-37
2022/01/16 07:41:41;;;;;;;9.10;7.43;;;19.30;34.90;;;;;;5077251;28;20036;-36
2022/01/16 07:44:06;;;;;;;12.10;8.15;;;19.30;34.90;;;;;;5058211;28;20093;-36
2022/01/16 07:46:32;;;;;;;9.77;7.55;;;19.30;34.90;;;;;;5058329;28;20029;-36
2022/01/16 07:48:59;;;;;;;9.90;7.78;;;19.30;34.80;;;;;;5076437;28;20017;-36
2022/01/16 07:51:25;;;;;;;9.40;7.82;;;19.30;34.80;;;;;;5076293;28;20023;-38
2022/01/16 07:53:55;;;;;;;10.18;7.60;;;19.30;34.90;;;;;;5075814;28;20075;-36
2022/01/16 07:56:21;;;;;;;9.35;7.20;;;19.30;34.90;;;;;;5076540;28;20114;-37
2022/01/16 07:58:54;;;;;;;9.82;8.10;;;19.30;34.80;;;;;;5075573;28;20012;-36
2022/01/16 08:01:19;;;;;;;10.15;7.88;;;19.30;34.90;;;;;;5076273;28;20024;-37
2022/01/16 08:03:47;;;;;;;9.85;7.72;;;19.30;34.90;;;;;;5076155;28;20024;-37
2022/01/16 08:06:14;;;;;;;9.20;7.90;;;19.30;34.90;;;;;;5075648;28;20025;-37
2022/01/16 08:08:41;;;;;;;9.10;7.70;;;19.40;35.00;;;;;;5076009;28;20027;-35
2022/01/16 08:11:10;;;;;;;10.43;7.72;;;19.30;34.90;;;;;;5076692;28;20009;-35
2022/01/16 08:13:37;;;;;;;9.38;7.75;;;19.30;35.00;;;;;;5075515;28;20027;-36
2022/01/16 08:16:06;;;;;;;10.50;8.27;;;19.30;34.90;;;;;;5075666;28;20012;-35
2022/01/16 08:18:32;;;;;;;9.30;7.20;;;19.30;35.60;;;;;;5075732;28;20456;-35
2022/01/16 08:20:58;;;;;;;9.73;7.97;;;19.30;35.10;;;;;;5075089;28;20073;-35
2022/01/16 08:23:25;;;;;;;9.80;7.75;;;19.30;35.10;;;;;;5074673;28;20009;-35
2022/01/16 08:25:51;;;;;;;9.80;7.43;;;19.30;35.10;;;;;;5074365;28;20131;-37
2022/01/16 08:28:17;;;;;;;10.10;7.57;;;19.40;35.10;;;;;;5074612;28;20013;-35
2022/01/16 08:30:43;;;;;;;9.95;7.88;;;19.30;35.10;;;;;;5074358;28;20024;-36
2022/01/16 08:33:09;;;;;;;9.55;7.60;;;19.30;35.10;;;;;;5073962;28;20521;-35
2022/01/16 08:35:35;;;;;;;9.50;7.22;;;19.30;35.10;;;;;;5074255;28;20021;-36
2022/01/16 08:38:01;;;;;;;9.68;7.50;;;19.40;35.10;;;;;;5075082;28;20016;-36
2022/01/16 08:40:27;;;;;;;9.90;7.40;;;19.40;35.10;;;;;;5056813;28;20027;-36
2022/01/16 08:42:53;;;;;;;10.15;7.55;;;19.40;35.10;;;;;;5074876;28;20487;-37
2022/01/16 08:45:20;;;;;;;10.32;7.78;;;19.30;35.10;;;;;;5074372;28;20024;-36
2022/01/16 08:47:46;;;;;;;9.95;7.72;;;19.40;35.20;;;;;;5074384;28;20109;-36
2022/01/16 08:50:14;;;;;;;9.35;7.45;;;19.40;35.10;;;;;;5073673;28;20017;-36
2022/01/16 08:52:40;;;;;;;9.85;7.72;;;19.40;35.00;;;;;;5074210;28;20017;-36
2022/01/16 08:55:08;;;;;;;9.98;7.40;;;19.40;35.00;;;;;;5073712;28;20039;-36
2022/01/16 08:57:34;;;;;;;9.50;7.30;;;19.40;35.10;;;;;;5073965;28;20443;-37
2022/01/16 09:00:01;;;;;;;9.18;7.65;;;19.40;35.10;;;;;;5073926;28;20095;-37
2022/01/16 09:02:27;;;;;;;9.27;7.57;;;19.40;35.00;;;;;;5073868;28;20085;-37
2022/01/16 09:04:53;;;;;;;9.32;7.30;;;19.40;35.10;;;;;;5073777;28;20468;-36
2022/01/16 09:07:20;;;;;;;9.43;7.22;;;19.40;35.10;;;;;;5074146;28;20017;-36
2022/01/16 09:09:45;;;;;;;9.85;7.30;;;19.40;35.10;;;;;;5074175;28;20017;-36
2022/01/16 09:12:12;;;;;;;9.57;7.60;;;19.40;35.00;;;;;;5074067;28;20028;-35
2022/01/16 09:14:37;;;;;;;8.82;7.10;;;19.40;35.10;;;;;;5074243;28;20008;-35
2022/01/16 09:17:04;;;;;;;9.48;7.47;;;19.40;35.10;;;;;;5074075;28;20013;-36
2022/01/16 09:19:31;;;;;;;9.40;7.35;;;19.40;35.10;;;;;;5074154;28;20045;-35
2022/01/16 09:21:57;;;;;;;8.20;6.75;;;19.40;35.10;;;;;;5073571;28;20036;-36
2022/01/16 09:24:24;;;;;;;10.40;7.70;;;19.40;35.10;;;;;;5073693;28;20012;-37
2022/01/16 09:26:54;;;;;;;9.25;7.40;;;19.50;35.10;;;;;;5073582;28;20030;-36
2022/01/16 09:29:20;;;;;;;;;;;19.50;35.10;;;;;;5057160;28;20081;-36
2022/01/16 09:31:46;;;;;;;10.02;7.18;;;19.50;35.10;;;;;;5073200;28;20408;-36
2022/01/16 09:34:12;;;;;;;8.88;7.00;;;19.50;35.10;;;;;;5073434;28;20070;-35
2022/01/16 09:36:38;;;;;;;8.77;6.80;;;19.50;35.20;;;;;;5073590;28;20495;-35
2022/01/16 09:39:05;;;;;;;9.13;7.40;;;19.40;35.10;;;;;;5074143;28;20012;-36
2022/01/16 09:41:30;;;;;;;8.63;6.90;;;19.50;35.10;;;;;;5074034;28;20016;-35
2022/01/16 09:43:57;;;;;;;8.13;6.75;;;19.50;35.10;;;;;;5073407;28;20467;-36
2022/01/16 09:46:23;;;;;;;8.50;6.95;;;19.50;35.10;;;;;;5073924;28;20051;-35
2022/01/16 09:48:49;;;;;;;8.43;7.13;;;19.50;35.00;;;;;;5073696;28;20015;-35
2022/01/16 09:51:15;;;;;;;8.57;7.15;;;19.50;35.10;;;;;;5055983;28;20019;-35
2022/01/16 09:53:42;;;;;;;9.15;7.00;;;19.50;35.10;;;;;;5055662;28;20037;-35
2022/01/16 09:56:08;;;;;;;9.57;6.80;;;19.50;35.00;;;;;;5056322;28;20016;-35
2022/01/16 09:58:35;;;;;;;9.63;7.60;;;19.50;35.10;;;;;;5074014;28;20023;-35
2022/01/16 10:01:01;;;;;;;9.48;7.70;;;19.50;35.10;;;;;;5073799;28;20099;-36
2022/01/16 10:03:41;;;;;;;8.93;7.32;;;19.50;35.00;;;;;;5077467;28;20056;-35
2022/01/16 10:06:12;;;;;;;9.07;7.30;;;19.50;35.10;;;;;;5077918;28;20021;-36
2022/01/16 10:08:39;;;;;;;8.68;7.03;;;19.50;35.10;;;;;;5079090;28;20004;-37
2022/01/16 10:11:24;;;;;;;9.30;7.20;;;19.50;35.00;;;;;;5078415;28;20013;-36
2022/01/16 10:16:43;;;;;;;8.65;7.18;;;19.50;34.90;;;;;;5075091;28;20028;-37
2022/01/16 10:19:26;;;;;;;8.65;6.80;;;19.50;34.90;;;;;;5080802;28;20028;-36
2022/01/16 10:22:07;;;;;;;10.05;7.25;;;19.50;35.00;;;;;;5078369;28;20016;-34
2022/01/16 10:24:34;;;;;;;9.85;7.60;;;19.50;35.00;;;;;;5076914;28;20016;-35
2022/01/16 10:27:09;;;;;;;9.10;7.03;;;19.50;35.10;;;;;;5076671;28;20101;-36
2022/01/16 10:29:35;;;;;;;9.98;7.53;;;19.50;35.10;;;;;;5076807;28;20021;-36
2022/01/16 10:32:13;;;;;;;7.82;6.70;;;19.50;35.20;;;;;;5076806;28;20070;-36
2022/01/16 10:34:40;;;;;;;7.43;6.32;;;19.50;35.20;;;;;;5076923;28;20016;-36
2022/01/16 10:37:22;;;;;;;9.20;7.30;;;19.50;35.20;;;;;;5076363;28;20017;-37
2022/01/16 10:39:56;;;;;;;9.43;6.90;;;19.50;35.20;;;;;;5076940;28;20051;-37
2022/01/16 10:42:23;;;;;;;9.18;7.10;;;19.50;35.10;;;;;;5077822;28;20024;-36
2022/01/16 10:45:03;;;;;;;9.38;7.55;;;19.50;35.10;;;;;;5060420;28;20095;-38
2022/01/16 10:47:31;;;;;;;8.38;6.75;;;19.50;35.10;;;;;;5080374;28;20099;-37
2022/01/16 10:50:18;;;;;;;8.27;6.70;;;19.60;35.10;;;;;;5081158;28;20034;-36
2022/01/16 10:52:55;;;;;;;8.35;7.00;;;19.60;35.20;;;;;;5078461;28;20464;-36
2022/01/16 10:55:43;;;;;;;8.15;6.40;;;19.50;35.10;;;;;;5078572;28;20066;-36
2022/01/16 10:58:17;;;;;;;8.75;6.80;;;19.60;35.20;;;;;;5063014;28;20024;-35
2022/01/16 11:00:54;;;;;;;8.52;6.78;;;19.50;35.10;;;;;;5079685;28;20016;-36
2022/01/16 11:03:21;;;;;;;8.35;6.68;;;19.50;35.10;;;;;;5079176;28;20017;-37
2022/01/16 11:05:47;;;;;;;8.48;6.70;;;19.50;35.10;;;;;;5077718;28;20094;-35
2022/01/16 11:08:15;;;;;;;7.85;6.50;;;19.60;35.20;;;;;;5079676;28;20183;-36
2022/01/16 11:10:51;;;;;;;8.27;6.78;;;19.50;35.20;;;;;;5080294;28;20009;-37
2022/01/16 11:13:21;;;;;;;8.40;7.10;;;19.60;35.20;;;;;;5078611;28;20433;-35
2022/01/16 11:15:51;;;;;;;8.30;6.60;;;19.50;35.20;;;;;;5079433;28;20012;-37
2022/01/16 11:18:18;;;;;;;9.00;7.28;;;19.60;35.20;;;;;;5079376;28;20013;-35
2022/01/16 11:20:52;;;;;;;8.30;6.68;;;19.60;35.20;;;;;;5078992;28;20056;-37
2022/01/16 11:23:31;;;;;;;7.05;6.03;;;19.60;35.20;;;;;;5079809;28;20475;-37
2022/01/16 11:26:01;;;;;;;7.85;6.35;;;19.60;35.20;;;;;;5079029;28;20031;-35
2022/01/16 11:28:47;;;;;;;;;;;19.60;35.10;;;;;;5063775;28;20017;-35
2022/01/16 11:31:13;;;;;;;7.25;6.18;;;19.60;35.10;;;;;;5078804;28;19900;-35
2022/01/16 11:33:59;;;;;;;8.68;6.30;;;19.60;35.10;;;;;;5079224;28;20491;-34
2022/01/16 11:36:45;;;;;;;7.30;6.20;;;19.60;35.10;;;;;;5080134;28;20060;-35
2022/01/16 11:39:11;;;;;;;8.98;6.15;;;19.60;35.10;;;;;;5080014;28;20078;-35
2022/01/16 11:41:51;;;;;;;7.72;6.20;;;19.60;35.10;;;;;;5080530;28;20092;-35
2022/01/16 11:44:30;;;;;;;7.88;6.35;;;19.60;35.10;;;;;;5079711;28;20017;-35
2022/01/16 11:47:14;;;;;;;7.65;6.18;;;19.60;35.00;;;;;;5079546;28;20074;-34
2022/01/16 11:49:41;;;;;;;7.80;6.13;;;19.70;35.10;;;;;;5060347;28;20099;-35
2022/01/16 11:52:14;;;;;;;8.15;6.20;;;19.60;35.20;;;;;;5076126;28;20043;-34
2022/01/16 11:54:42;;;;;;;8.00;6.32;;;19.60;35.10;;;;;;5074813;28;20067;-35
2022/01/16 11:57:21;;;;;;;8.38;6.97;;;19.60;35.10;;;;;;5074863;28;20032;-35
2022/01/16 11:59:52;;;;;;;6.95;5.80;;;19.60;35.10;;;;;;5075345;28;20027;-35
2022/01/16 12:02:20;;;;;;;7.00;6.03;;;19.70;35.60;;;;;;5075484;28;20020;-35
2022/01/16 12:04:54;;;;;;;7.70;6.30;;;19.70;35.10;;;;;;5075376;28;20104;-35
2022/01/16 12:07:20;;;;;;;6.97;5.65;;;19.60;35.00;;;;;;5076382;28;20016;-35
2022/01/16 12:09:57;;;;;;;7.93;6.28;;;19.60;35.10;;;;;;5076492;28;20043;-35
2022/01/16 12:12:23;;;;;;;7.97;6.40;;;19.60;35.10;;;;;;5058531;28;20062;-35
2022/01/16 12:14:49;;;;;;;7.25;5.97;;;19.60;35.10;;;;;;5076601;28;20024;-35
2022/01/16 12:17:44;;;;;;;7.13;5.63;;;19.70;35.10;;;;;;5077332;28;20069;-35
2022/01/16 12:20:13;;;;;;;7.90;6.15;;;19.60;35.00;;;;;;5077419;28;20088;-34
2022/01/16 12:22:53;;;;;;;7.13;6.00;;;19.70;35.10;;;;;;5078998;28;20044;-36
2022/01/16 12:25:19;;;;;;;7.63;6.10;;;19.70;35.20;;;;;;5077994;28;20040;-35
2022/01/16 12:27:50;;;;;;;7.07;5.90;;;19.60;35.20;;;;;;5078702;28;20008;-35
2022/01/16 12:30:38;;;;;;;7.18;5.97;;;19.60;35.10;;;;;;5078588;28;20020;-36
2022/01/16 12:33:13;;;;;;;6.65;5.57;;;19.60;35.10;;;;;;5079002;28;20031;-36
2022/01/16 12:35:50;;;;;;;7.50;5.78;;;19.70;35.20;;;;;;5078840;28;20024;-35
2022/01/16 12:38:32;;;;;;;7.25;5.82;;;19.60;35.10;;;;;;5077870;28;20068;-35
2022/01/16 12:41:06;;;;;;;7.65;6.22;;;19.70;35.10;;;;;;5078017;28;20016;-35
2022/01/16 12:43:40;;;;;;;6.88;5.63;;;19.70;35.10;;;;;;5077151;28;20016;-35
2022/01/16 12:46:06;;;;;;;7.15;5.93;;;19.70;35.10;;;;;;5076734;28;20032;-35
2022/01/16 12:48:32;;;;;;;6.95;5.78;;;19.60;35.10;;;;;;5076389;28;20009;-35
2022/01/16 12:50:59;;;;;;;7.45;5.75;;;19.60;35.10;;;;;;5058795;28;20020;-35
2022/01/16 12:53:41;;;;;;;7.65;6.10;;;19.60;35.20;;;;;;5076410;28;20491;-35
2022/01/16 12:56:27;;;;;;;7.53;6.38;;;19.60;35.20;;;;;;5076652;28;20115;-35
2022/01/16 12:58:58;;;;;;;6.80;5.70;;;19.60;35.20;;;;;;5076438;28;20019;-35
2022/01/16 13:01:25;;;;;;;7.70;6.10;;;19.60;35.30;;;;;;5075768;28;20066;-35
2022/01/16 13:03:51;;;;;;;7.90;6.03;;;19.60;35.20;;;;;;5075681;28;20154;-35
2022/01/16 13:06:28;;;;;;;7.18;5.90;;;19.60;35.20;;;;;;5075634;28;20039;-35
2022/01/16 13:09:05;;;;;;;7.20;6.03;;;19.60;35.30;;;;;;5075592;28;20062;-35
2022/01/16 13:11:35;;;;;;;7.85;6.07;;;19.60;35.30;;;;;;5074374;28;20078;-35
2022/01/16 13:14:03;;;;;;;6.70;5.57;;;19.60;35.30;;;;;;5074557;28;20023;-35
2022/01/16 13:16:37;;;;;;;7.43;5.93;;;19.60;35.20;;;;;;5073677;28;20020;-34
2022/01/16 13:19:14;;;;;;;7.85;6.00;;;19.60;35.30;;;;;;5073840;28;20029;-35
2022/01/16 13:21:58;;;;;;;6.72;5.85;;;19.60;35.30;;;;;;5074628;28;20115;-35
2022/01/16 13:24:47;;;;;;;6.30;5.50;;;19.50;35.40;;;;;;5075355;28;20082;-35
2022/01/16 13:27:20;;;;;;;6.45;5.68;;;19.50;35.60;;;;;;5075392;28;20095;-35
2022/01/16 13:29:47;;;;;;;7.53;6.00;;;19.40;35.70;;;;;;5075248;28;20056;-35
2022/01/16 13:32:15;;;;;;;7.63;5.95;;;19.30;35.80;;;;;;5075233;28;20066;-35
2022/01/16 13:34:55;;;;;;;7.07;5.78;;;19.30;36.00;;;;;;5074449;28;20062;-35
2022/01/16 13:37:32;;;;;;;8.73;5.85;;;19.20;36.10;;;;;;5076034;28;20012;-35